Weather reports worldwide

Advertisment
Salsburgh, United Kingdom (99024): temperature & dewpoint: 18.06.2017 04:00:00 - 24.06.2017 04:00:00 (BST)Salsburgh, United Kingdom (99024): temperature 5cm: 18.06.2017 04:00:00 - 24.06.2017 04:00:00 (BST)Salsburgh, United Kingdom (99024): wind speed & gusts: 18.06.2017 04:00:00 - 24.06.2017 04:00:00 (BST)Salsburgh, United Kingdom (99024): wind direction: 18.06.2017 04:00:00 - 24.06.2017 04:00:00 (BST)Salsburgh, United Kingdom (99024): visibility: 18.06.2017 04:00:00 - 24.06.2017 04:00:00 (BST)Salsburgh, United Kingdom (99024): precipitation: 18.06.2017 04:00:00 - 24.06.2017 04:00:00 (BST)
Date & Time tt [°C] td [°C] tt 5cm [°C] ff [km/h] ff [kn] fx [km/h] fx [kn] dd vv [km] rr [mm]
24.06.2017 04:00:00 - - - - - - - - - 0,0
24.06.2017 03:00:00 9,5 6,8 - 41 22 54 29 W - 0,0
24.06.2017 02:00:00 9,7 6,8 - 35 19 52 28 WSW - 0,0
24.06.2017 01:00:00 9,9 6,7 - 35 19 55 30 W - 0,0
24.06.2017 00:00:00 10,1 5,6 - 35 19 57 31 W - 0,0
23.06.2017 23:00:00 9,9 6,4 - 26 14 - - W - 0,0
23.06.2017 22:00:00 10,6 6,2 - 22 12 - - W 10 0,0
23.06.2017 21:00:00 11,4 5,5 - 28 15 48 26 W - 0,0
23.06.2017 20:00:00 12,8 6,3 - 29 16 57 31 W - 0,0
23.06.2017 19:00:00 12,7 6,8 - 37 20 57 31 W - 0,0
23.06.2017 18:00:00 13,9 7,9 - 35 19 54 29 W - 0,0
23.06.2017 17:00:00 13,4 8,7 - 35 19 48 26 W - 0,0
23.06.2017 16:00:00 14,2 9,3 - 34 18 54 29 W - 0,0
23.06.2017 15:00:00 15,4 10,8 - 39 21 63 34 W - 0,0
23.06.2017 14:00:00 14,1 10,6 - 42 23 61 33 WSW - 0,0
23.06.2017 13:00:00 13,4 9,3 - 35 19 70 38 WSW - 0,0
23.06.2017 12:00:00 13,3 11,1 - 35 19 55 30 W - 0,0
23.06.2017 11:00:00 11,8 11,3 - 42 23 67 36 W - 0,8
23.06.2017 10:00:00 13,2 12,8 - 50 27 61 33 N 0,4 0,0
23.06.2017 09:00:00 12,7 12,4 - 39 21 59 32 SW - 0,0
23.06.2017 08:00:00 12,0 12,0 - 35 19 61 33 SW - 0,0
23.06.2017 07:00:00 11,6 11,5 - 37 20 55 30 SSW - 0,0
23.06.2017 06:00:00 11,3 11,2 - 39 21 57 31 SSW - 0,0
23.06.2017 05:00:00 11,1 10,9 - 39 21 54 29 SSW - 0,0
23.06.2017 04:00:00 10,8 10,6 - 35 19 46 25 SSW - 0,8
23.06.2017 03:00:00 10,7 10,5 - 29 16 48 26 SSW - 3,0
23.06.2017 02:00:00 11,0 10,2 - 29 16 - - SSW - 0,2
23.06.2017 01:00:00 11,5 9,7 - 22 12 - - SW - 0,0
23.06.2017 00:00:00 11,2 9,8 - 21 11 - - SSW - 0,0
22.06.2017 23:00:00 11,3 10,0 - 16 9 - - SSW - 0,0
22.06.2017 22:00:00 11,6 9,9 - 21 11 - - SW - 0,0
22.06.2017 21:00:00 12,3 9,8 - 28 15 - - WSW - 0,0
22.06.2017 20:00:00 12,8 10,0 - 28 15 - - WSW - 0,0
22.06.2017 19:00:00 13,0 9,9 - 24 13 - - WSW - 0,0
22.06.2017 18:00:00 14,0 10,3 - 28 15 - - W - 0,0
22.06.2017 17:00:00 14,9 10,8 - 24 13 - - WSW - 0,0
22.06.2017 16:00:00 15,4 10,5 - 26 14 - - WSW - 0,0
22.06.2017 15:00:00 16,8 11,7 - 24 13 - - WSW - 0,0
22.06.2017 14:00:00 15,9 11,1 - 21 11 - - W - 0,0
22.06.2017 13:00:00 14,7 11,2 - 22 12 - - W - 0,0
22.06.2017 12:00:00 14,5 11,2 - 21 11 - - WSW - 0,0
22.06.2017 11:00:00 14,4 12,3 - 21 11 - - WSW - 0,0
22.06.2017 10:00:00 12,9 11,8 - 21 11 - - W 1,5 0,0
22.06.2017 09:00:00 12,6 11,8 - 22 12 - - W - 0,0
22.06.2017 08:00:00 12,9 12,2 - 21 11 - - W - 0,0
22.06.2017 07:00:00 12,3 12,0 - 16 9 - - W - 0,0
22.06.2017 06:00:00 12,0 11,7 - 21 11 - - W - 0,0
22.06.2017 05:00:00 12,9 12,1 - 21 11 - - W - 0,0
22.06.2017 04:00:00 13,5 13,4 - 16 9 - - W - 0,0
22.06.2017 03:00:00 14,4 14,4 - 16 9 - - W - 0,0
22.06.2017 02:00:00 15,3 15,2 - 13 7 - - W - 0,0
22.06.2017 01:00:00 15,5 15,2 - 13 7 - - WNW - 0,0
22.06.2017 00:00:00 16,1 15,6 - 8 4 - - SW - 0,0
21.06.2017 23:00:00 15,9 15,7 - 9 5 - - ESE - 0,0
21.06.2017 22:00:00 15,8 15,3 - 15 8 - - E - 0,0
21.06.2017 21:00:00 16,3 14,7 - 18 10 - - E - 0,0
21.06.2017 20:00:00 17,0 15,3 - 15 8 - - ENE - 0,0
21.06.2017 19:00:00 19,2 16,1 - 8 4 - - ENE - 0,0
21.06.2017 18:00:00 19,3 16,7 - 13 7 - - S - 0,0
21.06.2017 17:00:00 19,6 16,1 - 18 10 - - S - 0,0
21.06.2017 16:00:00 20,8 17,3 - 5 3 - - WSW - 0,0
21.06.2017 15:00:00 18,9 16,1 - 11 6 - - S - 0,0
21.06.2017 14:00:00 17,8 16,0 - 18 10 - - S - 0,0
21.06.2017 13:00:00 17,4 15,5 - 18 10 - - S - 0,0
21.06.2017 12:00:00 16,2 15,1 - 18 10 - - S - 0,2
21.06.2017 11:00:00 14,5 13,5 - 9 5 - - E - 0,0
21.06.2017 10:00:00 14,4 13,9 14,5 90 49 - - N 0,9 0,2
21.06.2017 09:00:00 12,8 12,0 - 13 7 - - E - 0,0
21.06.2017 08:00:00 12,1 11,9 - 15 8 - - ENE - 0,0
21.06.2017 07:00:00 11,7 11,6 - 21 11 - - ENE - 0,0
21.06.2017 06:00:00 11,4 11,3 - 18 10 - - ENE - 0,0
21.06.2017 05:00:00 11,5 11,4 - 15 8 - - ENE - 0,0
21.06.2017 04:00:00 11,3 11,1 - 15 8 - - E - 0,0
21.06.2017 03:00:00 11,5 11,3 - 15 8 - - E - 0,0
21.06.2017 02:00:00 11,7 11,5 - 18 10 - - E - 0,0
21.06.2017 01:00:00 11,8 11,6 - 16 9 - - ENE - 0,0
21.06.2017 00:00:00 11,9 11,5 - 18 10 - - E - 0,0
20.06.2017 23:00:00 11,9 11,4 - 18 10 - - ENE - 0,0
20.06.2017 22:00:00 12,4 11,5 - 24 13 - - ENE - 0,0
20.06.2017 21:00:00 13,6 11,6 - 24 13 - - ENE - 0,0
20.06.2017 20:00:00 14,8 11,4 - 29 16 - - ENE - 0,0
20.06.2017 19:00:00 15,8 11,2 - 28 15 - - ENE - 0,0
20.06.2017 18:00:00 16,7 11,2 - 26 14 - - ENE - 0,0
20.06.2017 17:00:00 17,5 11,1 - 24 13 - - ENE - 0,0
20.06.2017 16:00:00 17,6 11,8 - 24 13 - - NE - 0,0
20.06.2017 15:00:00 16,7 11,0 - 21 11 - - ENE - 0,0
20.06.2017 14:00:00 16,9 11,6 - 21 11 - - ENE - 0,0
20.06.2017 13:00:00 16,3 11,3 - 22 12 - - ENE - 0,0
20.06.2017 12:00:00 16,5 11,8 - 13 7 - - ENE - 0,0
20.06.2017 11:00:00 14,6 10,8 - 15 8 - - NE - 0,0
20.06.2017 10:00:00 13,7 10,9 13,7 - - - - N 4,4 0,0
20.06.2017 09:00:00 12,1 10,1 - 13 7 - - NE - 0,0
20.06.2017 08:00:00 11,7 9,5 - 11 6 - - NE - 0,0
20.06.2017 07:00:00 10,1 9,4 - 4 2 - - E - 0,0
20.06.2017 06:00:00 8,4 7,6 - 4 2 - - SSE - 0,0
20.06.2017 05:00:00 7,4 6,8 - 5 3 - - S - 0,0
20.06.2017 04:00:00 7,9 7,0 - 5 3 - - SSW - 0,0
20.06.2017 03:00:00 8,4 7,4 - 5 3 - - SW - 0,0
20.06.2017 02:00:00 9,6 7,2 - 5 3 - - SW - 0,0
20.06.2017 01:00:00 10,1 7,2 - 8 4 - - W - 0,0
20.06.2017 00:00:00 10,7 7,5 - 8 4 - - W - 0,0
19.06.2017 23:00:00 11,6 7,8 - 11 6 - - WNW - 0,0
19.06.2017 22:00:00 13,2 8,6 - 16 9 - - WNW - 0,0
19.06.2017 21:00:00 14,9 9,5 - 18 10 - - WNW - 0,0
19.06.2017 20:00:00 17,1 10,6 - 16 9 - - WNW - 0,0
19.06.2017 19:00:00 18,0 11,1 - 18 10 - - WNW - 0,0
19.06.2017 18:00:00 18,4 12,3 - 22 12 - - W - 0,0
19.06.2017 17:00:00 17,4 11,6 - 22 12 - - W - 0,0
19.06.2017 16:00:00 18,0 12,4 - 28 15 - - WNW - 0,0
19.06.2017 15:00:00 18,8 12,9 - 26 14 - - W - 0,0
19.06.2017 14:00:00 16,9 13,8 - 24 13 - - WSW - 0,0
19.06.2017 13:00:00 16,7 13,4 - 22 12 - - WSW - 0,0
19.06.2017 12:00:00 17,5 14,0 - 26 14 - - W - 0,0
19.06.2017 11:00:00 17,5 14,7 - 22 12 - - W - 0,0
19.06.2017 10:00:00 17,4 14,7 17,4 76 41 - - N 2,1 0,0
19.06.2017 09:00:00 16,7 14,5 - 18 10 - - SW - 0,0
19.06.2017 08:00:00 15,0 14,4 - 9 5 - - WSW - 0,0
19.06.2017 07:00:00 14,1 13,9 - 9 5 - - SSW - 0,0
19.06.2017 06:00:00 13,6 13,5 - 5 3 - - SSW - 0,0
19.06.2017 05:00:00 13,9 13,7 - 4 2 - - SSW - 0,0
19.06.2017 04:00:00 14,0 13,6 - 5 3 - - SE - 0,0
19.06.2017 03:00:00 14,6 14,1 - 5 3 - - SSW - 0,0
19.06.2017 02:00:00 15,2 14,4 - 5 3 - - SSW - 0,0
19.06.2017 01:00:00 15,2 14,2 - 5 3 - - SW - 0,0
19.06.2017 00:00:00 15,3 14,1 - 5 3 - - SSW - 0,0
18.06.2017 23:00:00 16,2 14,3 - 9 5 - - WNW - 0,0
18.06.2017 22:00:00 16,5 14,5 - 9 5 - - WNW - 0,0
18.06.2017 21:00:00 18,3 14,7 - 11 6 - - W - 0,0
18.06.2017 20:00:00 19,2 14,7 - 18 10 - - W - 0,0
18.06.2017 19:00:00 19,6 15,2 - 18 10 - - W - 0,0
18.06.2017 18:00:00 19,1 15,4 - 22 12 - - WNW - 0,0
18.06.2017 17:00:00 21,5 15,5 - 22 12 - - W - 0,0
18.06.2017 16:00:00 21,1 15,9 - 26 14 - - WSW - 0,0
18.06.2017 15:00:00 20,5 16,1 - 26 14 - - W - 0,0
18.06.2017 14:00:00 19,0 15,0 - 24 13 - - W - 0,0
18.06.2017 13:00:00 18,6 15,1 - 22 12 - - WSW - 0,0
18.06.2017 12:00:00 18,3 15,3 - 21 11 - - W - 0,0
18.06.2017 11:00:00 16,6 14,4 - 18 10 - - W - 0,0
18.06.2017 10:00:00 16,1 14,0 16,5 65 35 - - N 1,0 0,0
18.06.2017 09:00:00 14,9 13,1 - 22 12 - - WSW - 0,0
18.06.2017 08:00:00 14,6 12,7 - 24 13 - - WSW - 0,0
18.06.2017 07:00:00 14,3 12,5 - 18 10 - - WSW - 0,0
18.06.2017 06:00:00 13,1 11,4 - 21 11 - - SSW - 0,0
18.06.2017 05:00:00 12,4 10,8 - 21 11 - - SSW - 0,0
18.06.2017 04:00:00 13,0 11,2 - 22 12 - - SW - 0,0

tt = temperature
td = dewpoint
tt 5cm = temperature 5cm
ff = wind speed
fx = gusts
dd = wind direction
vv = visibility
rr = precipitation

Next stations